Denise, Brazil
Current Conditions -  °F | °C
As of 8:00 PM on Saturday 25 Oct 2014 (Local Time) from SBCY Reporting Station
Broken Clouds Broken Clouds  
Wind Chill: 81°   Ceiling: 10000
Heat Index: 83°   Visibility: 6mi
Dew Point: 68°   Wind: 3mph
Humidity: 65%   Direction: 360°N
Pressure: 29.8"   Gusts: NA
Location:  14.74°S, 57.05°W
Report Text: SBCY 252300Z 36003KT 9999 FEW020 BKN100 27/20 Q1009
Loading
Personal Weather Stations






























Interactive Weather Map
Tropical Storm Tracking
New forecast layout! Learn more

10-Day Weather Forecast

Advertisements
Track Severe Weather on mobile